createdAt,value
2019-05-20T00:00:06.571Z,7.87
2019-05-20T00:02:41.238Z,6.78
2019-05-20T00:05:16.002Z,6.97
2019-05-20T00:07:50.635Z,6.72
2019-05-20T00:10:25.389Z,6.50
2019-05-20T00:13:00.034Z,6.17
2019-05-20T00:15:34.795Z,6.37
2019-05-20T00:18:09.587Z,6.12
2019-05-20T00:20:44.278Z,6.55
2019-05-20T00:23:19.009Z,6.28
2019-05-20T00:25:53.758Z,6.10
2019-05-20T00:28:28.542Z,6.10
2019-05-20T00:31:03.231Z,6.47
2019-05-20T00:33:38.003Z,6.03
2019-05-20T00:36:12.646Z,5.00
2019-05-20T00:38:49.077Z,4.72
2019-05-20T00:41:23.763Z,4.80
2019-05-20T00:43:58.482Z,4.92
2019-05-20T00:46:33.092Z,5.10
2019-05-20T00:49:07.883Z,5.33
2019-05-20T00:51:42.635Z,5.72
2019-05-20T00:54:17.495Z,5.83
2019-05-20T00:56:52.947Z,5.92
2019-05-20T00:59:27.608Z,6.22
2019-05-20T01:02:02.287Z,5.87
2019-05-20T01:04:37.013Z,5.37
2019-05-20T01:07:11.774Z,5.15
2019-05-20T01:09:46.575Z,4.78
2019-05-20T01:12:21.404Z,5.00
2019-05-20T01:14:56.245Z,5.33
2019-05-20T01:17:30.925Z,4.33
2019-05-20T01:20:06.921Z,4.00
2019-05-20T01:22:41.678Z,3.67
2019-05-20T01:25:16.468Z,3.50
2019-05-20T01:27:51.116Z,4.28
2019-05-20T01:30:25.880Z,4.83
2019-05-20T01:33:12.710Z,4.75
2019-05-20T01:35:36.991Z,4.72
2019-05-20T01:38:11.682Z,4.90
2019-05-20T01:40:46.412Z,5.17
2019-05-20T01:43:21.123Z,5.75
2019-05-20T01:45:55.815Z,6.40
2019-05-20T01:48:30.504Z,6.00
2019-05-20T01:51:05.291Z,5.75
2019-05-20T01:53:40.059Z,5.20
2019-05-20T01:56:14.703Z,6.42
2019-05-20T01:58:49.389Z,6.75
2019-05-20T02:01:24.073Z,6.45
2019-05-20T02:03:58.876Z,5.47
2019-05-20T02:06:33.701Z,5.22
2019-05-20T02:09:09.359Z,6.80
2019-05-20T02:11:44.146Z,6.10
2019-05-20T02:14:20.515Z,4.90
2019-05-20T02:16:55.223Z,5.00
2019-05-20T02:19:29.915Z,4.30
2019-05-20T02:22:04.714Z,3.90
2019-05-20T02:24:39.472Z,3.60
2019-05-20T02:27:14.257Z,3.12
2019-05-20T02:29:48.886Z,2.95
2019-05-20T02:32:24.575Z,2.77
2019-05-20T02:34:59.261Z,2.35
2019-05-20T02:37:34.049Z,2.83
2019-05-20T02:40:09.708Z,2.65
2019-05-20T02:42:44.428Z,2.95
2019-05-20T02:45:19.188Z,2.33
2019-05-20T02:47:53.994Z,2.40
2019-05-20T02:50:28.668Z,3.52
2019-05-20T02:53:03.486Z,3.37
2019-05-20T02:55:38.249Z,3.05
2019-05-20T02:58:13.054Z,3.55
2019-05-20T03:00:47.814Z,3.25
2019-05-20T03:03:22.607Z,2.20
2019-05-20T03:05:57.363Z,2.62
2019-05-20T03:08:32.175Z,1.90
2019-05-20T03:11:06.911Z,2.00
2019-05-20T03:13:41.640Z,2.45
2019-05-20T03:16:16.410Z,2.12
2019-05-20T03:18:51.203Z,2.42
2019-05-20T03:21:25.896Z,2.75
2019-05-20T03:24:00.689Z,2.30
2019-05-20T03:26:35.450Z,2.27
2019-05-20T03:29:10.254Z,2.33
2019-05-20T03:31:44.956Z,1.60
2019-05-20T03:34:44.156Z,1.62
2019-05-20T03:36:56.085Z,1.65
2019-05-20T03:39:31.704Z,1.47
2019-05-20T03:42:06.403Z,2.58
2019-05-20T03:44:41.110Z,3.12
2019-05-20T03:47:15.802Z,2.95
2019-05-20T03:49:50.587Z,2.27
2019-05-20T03:52:25.199Z,2.77
2019-05-20T03:54:59.926Z,3.00
2019-05-20T03:57:34.691Z,2.60
2019-05-20T04:00:10.205Z,2.60
2019-05-20T04:02:44.865Z,2.40
2019-05-20T04:05:19.583Z,2.42
2019-05-20T04:07:54.266Z,2.62
2019-05-20T04:10:28.977Z,2.10
2019-05-20T04:13:03.730Z,2.55
2019-05-20T04:15:38.454Z,2.58
2019-05-20T04:18:13.145Z,3.05
2019-05-20T04:20:47.943Z,2.87
2019-05-20T04:23:22.766Z,3.10
2019-05-20T04:25:57.575Z,3.45
2019-05-20T04:28:32.196Z,2.30
2019-05-20T04:31:06.928Z,2.65
2019-05-20T04:33:41.610Z,2.60
2019-05-20T04:36:16.425Z,2.95
2019-05-20T04:38:52.813Z,3.10
2019-05-20T04:41:27.600Z,3.22
2019-05-20T04:44:02.458Z,3.22
2019-05-20T04:46:37.330Z,3.70
2019-05-20T04:49:12.098Z,3.70
2019-05-20T04:51:46.882Z,3.60
2019-05-20T04:54:21.639Z,3.70
2019-05-20T04:56:56.311Z,2.85
2019-05-20T04:59:31.035Z,3.50
2019-05-20T05:02:05.836Z,3.95
2019-05-20T05:04:40.440Z,3.20
2019-05-20T05:07:15.234Z,3.10
2019-05-20T05:09:49.982Z,2.65
2019-05-20T05:12:24.844Z,2.92
2019-05-20T05:14:59.599Z,3.10
2019-05-20T05:17:34.393Z,3.95
2019-05-20T05:20:17.535Z,2.95
2019-05-20T05:22:45.911Z,3.05
2019-05-20T05:25:20.663Z,3.22
2019-05-20T05:27:55.457Z,3.08
2019-05-20T05:30:30.206Z,3.00
2019-05-20T05:33:05.011Z,3.75
2019-05-20T05:35:52.268Z,4.12
2019-05-20T05:38:16.926Z,4.65
2019-05-20T05:40:51.615Z,6.10
2019-05-20T05:43:26.332Z,6.55
2019-05-20T05:46:01.092Z,6.97
2019-05-20T05:48:35.822Z,7.30
2019-05-20T05:51:10.587Z,6.78
2019-05-20T05:53:45.271Z,7.12
2019-05-20T05:56:19.925Z,8.03
2019-05-20T05:58:54.718Z,7.62
2019-05-20T06:01:29.483Z,7.65
2019-05-20T06:04:04.285Z,7.95
2019-05-20T06:06:39.040Z,6.92
2019-05-20T06:09:13.842Z,7.17
2019-05-20T06:11:48.607Z,6.92
2019-05-20T06:14:23.409Z,6.83
2019-05-20T06:16:58.025Z,6.25
2019-05-20T06:19:32.817Z,6.90
2019-05-20T06:22:07.502Z,7.87
2019-05-20T06:24:42.246Z,8.23
2019-05-20T06:27:17.001Z,8.55
2019-05-20T06:29:51.782Z,7.90
2019-05-20T06:32:26.618Z,7.83
2019-05-20T06:35:01.688Z,8.93
2019-05-20T06:37:38.919Z,9.40
2019-05-20T06:40:14.116Z,11.40
2019-05-20T06:42:48.888Z,12.15
2019-05-20T06:45:23.703Z,12.80
2019-05-20T06:47:58.414Z,13.45
2019-05-20T06:50:52.402Z,13.85
2019-05-20T06:53:27.103Z,13.75
2019-05-20T06:56:01.895Z,14.43
2019-05-20T06:58:36.598Z,15.53
2019-05-20T07:01:11.414Z,17.20
2019-05-20T07:03:46.191Z,16.30
2019-05-20T07:06:21.052Z,17.10
2019-05-20T07:08:55.743Z,16.90
2019-05-20T07:11:30.553Z,17.17
2019-05-20T07:14:07.703Z,15.93
2019-05-20T07:16:41.675Z,15.30
2019-05-20T07:19:16.438Z,12.33
2019-05-20T07:21:51.247Z,13.38
2019-05-20T07:24:26.012Z,11.95
2019-05-20T07:27:00.806Z,11.70
2019-05-20T07:29:35.499Z,12.03
2019-05-20T07:32:10.246Z,12.90
2019-05-20T07:34:45.009Z,9.83
2019-05-20T07:37:20.239Z,11.22
2019-05-20T07:39:55.015Z,11.05
2019-05-20T07:42:30.898Z,11.33
2019-05-20T07:45:07.544Z,12.18
2019-05-20T07:47:42.465Z,10.80
2019-05-20T07:50:18.226Z,9.43
2019-05-20T07:52:53.121Z,7.92
2019-05-20T07:55:30.860Z,7.30
2019-05-20T07:58:08.002Z,7.08
2019-05-20T08:00:42.753Z,6.53
2019-05-20T08:03:17.549Z,5.65
2019-05-20T08:05:52.303Z,5.75
2019-05-20T08:08:27.106Z,5.80
2019-05-20T08:11:01.863Z,5.50
2019-05-20T08:13:36.651Z,6.87
2019-05-20T08:16:11.406Z,3.90
2019-05-20T08:18:46.195Z,3.22
2019-05-20T08:21:20.960Z,3.37
2019-05-20T08:23:55.760Z,4.15
2019-05-20T08:26:30.564Z,4.00
2019-05-20T08:29:05.414Z,4.65
2019-05-20T08:31:40.102Z,4.47
2019-05-20T08:34:14.902Z,4.67
2019-05-20T08:36:49.661Z,4.58
2019-05-20T08:39:24.315Z,5.10
2019-05-20T08:41:59.074Z,3.33
2019-05-20T08:44:33.935Z,3.25
2019-05-20T08:47:08.658Z,3.67
2019-05-20T08:49:44.006Z,3.62
2019-05-20T08:52:18.877Z,3.60
2019-05-20T08:54:53.604Z,4.30
2019-05-20T08:57:28.291Z,3.77
2019-05-20T09:00:03.549Z,3.40
2019-05-20T09:02:38.317Z,3.67
2019-05-20T09:05:13.231Z,4.05
2019-05-20T09:08:01.508Z,3.72
2019-05-20T09:10:24.340Z,4.05
2019-05-20T09:12:59.079Z,3.58
2019-05-20T09:15:33.801Z,3.87
2019-05-20T09:18:08.494Z,4.30
2019-05-20T09:20:43.438Z,3.65
2019-05-20T09:23:18.163Z,3.92
2019-05-20T09:25:52.884Z,3.72
2019-05-20T09:28:27.651Z,3.27
2019-05-20T09:31:02.399Z,2.80
2019-05-20T09:33:38.198Z,2.92
2019-05-20T09:36:15.904Z,3.27
2019-05-20T09:38:53.773Z,3.27
2019-05-20T09:41:28.546Z,3.05
2019-05-20T09:44:03.299Z,3.08
2019-05-20T09:46:38.025Z,3.00
2019-05-20T09:49:12.811Z,3.22
2019-05-20T09:51:48.134Z,3.00
2019-05-20T09:54:25.771Z,3.10
2019-05-20T09:57:00.557Z,3.27
2019-05-20T09:59:43.404Z,2.80
2019-05-20T10:02:11.706Z,2.80
2019-05-20T10:04:46.451Z,2.52
2019-05-20T10:07:21.244Z,2.37
2019-05-20T10:09:55.998Z,2.45
2019-05-20T10:12:45.533Z,2.60
2019-05-20T10:15:07.807Z,2.75
2019-05-20T10:17:42.595Z,3.10
2019-05-20T10:20:17.628Z,2.50
2019-05-20T10:22:52.379Z,2.90
2019-05-20T10:25:27.064Z,2.58
2019-05-20T10:28:01.870Z,2.58
2019-05-20T10:30:38.102Z,3.00
2019-05-20T10:33:12.898Z,3.10
2019-05-20T10:35:47.604Z,2.30
2019-05-20T10:38:22.257Z,2.10
2019-05-20T10:40:56.972Z,2.35
2019-05-20T10:43:31.675Z,2.27
2019-05-20T10:46:06.435Z,2.02
2019-05-20T10:48:41.272Z,2.20
2019-05-20T10:51:16.031Z,2.10
2019-05-20T10:53:50.767Z,1.72
2019-05-20T10:56:25.522Z,2.05
2019-05-20T10:59:00.226Z,1.92
2019-05-20T11:01:34.998Z,2.10
2019-05-20T11:04:09.782Z,2.00
2019-05-20T11:06:44.537Z,2.30
2019-05-20T11:09:19.337Z,2.10
2019-05-20T11:11:53.948Z,2.20
2019-05-20T11:14:28.751Z,2.37
2019-05-20T11:17:03.591Z,3.20
2019-05-20T11:19:38.374Z,2.87
2019-05-20T11:22:13.146Z,2.60
2019-05-20T11:24:47.980Z,2.10
2019-05-20T11:27:22.542Z,2.20
2019-05-20T11:29:57.330Z,2.15
2019-05-20T11:32:32.094Z,2.50
2019-05-20T11:35:10.225Z,2.90
2019-05-20T11:37:44.911Z,2.90
2019-05-20T11:40:19.787Z,2.60
2019-05-20T11:42:54.403Z,2.55
2019-05-20T11:45:29.134Z,2.37
2019-05-20T11:48:03.951Z,2.45
2019-05-20T11:50:38.739Z,2.60
2019-05-20T11:53:13.440Z,2.90
2019-05-20T11:55:48.171Z,3.05
2019-05-20T11:58:22.872Z,4.90
2019-05-20T12:00:57.648Z,3.12
2019-05-20T12:03:32.219Z,4.42
2019-05-20T12:06:07.097Z,2.80
2019-05-20T12:08:41.830Z,2.55
2019-05-20T12:11:16.650Z,2.60
2019-05-20T12:13:51.387Z,2.40
2019-05-20T12:16:26.071Z,2.60
2019-05-20T12:19:00.754Z,1.65
2019-05-20T12:21:35.553Z,1.40
2019-05-20T12:24:10.343Z,2.05
2019-05-20T12:26:45.074Z,1.98
2019-05-20T12:29:19.699Z,1.50
2019-05-20T12:31:54.407Z,0.90
2019-05-20T12:34:29.167Z,1.10
2019-05-20T12:37:03.982Z,1.00
2019-05-20T12:39:38.670Z,0.95
2019-05-20T12:42:13.571Z,1.02
2019-05-20T12:44:48.276Z,0.90
2019-05-20T12:47:23.793Z,0.70
2019-05-20T12:49:58.490Z,0.60
2019-05-20T12:52:33.280Z,0.70
2019-05-20T12:55:10.084Z,1.00
2019-05-20T12:57:44.956Z,0.75
2019-05-20T13:00:20.343Z,0.80
2019-05-20T13:02:55.060Z,0.90
2019-05-20T13:05:29.819Z,0.90
2019-05-20T13:08:05.273Z,1.00
2019-05-20T13:10:40.332Z,1.40
2019-05-20T13:13:15.128Z,1.02
2019-05-20T13:15:49.814Z,1.20
2019-05-20T13:18:24.534Z,1.50
2019-05-20T13:20:59.293Z,0.90
2019-05-20T13:23:34.810Z,1.00
2019-05-20T13:26:09.562Z,0.98
2019-05-20T13:28:44.371Z,0.70
2019-05-20T13:31:19.121Z,0.80
2019-05-20T13:33:53.844Z,1.17
2019-05-20T13:36:28.537Z,0.80
2019-05-20T13:39:03.919Z,1.00
2019-05-20T13:41:38.687Z,0.70
2019-05-20T13:44:13.438Z,1.47
2019-05-20T13:46:48.156Z,1.00
2019-05-20T13:49:23.048Z,1.00
2019-05-20T13:51:57.781Z,0.95
2019-05-20T13:54:32.567Z,1.72
2019-05-20T13:57:07.255Z,1.27
2019-05-20T13:59:41.989Z,1.55
2019-05-20T14:02:18.237Z,1.35
2019-05-20T14:04:52.996Z,0.80
2019-05-20T14:07:27.758Z,0.70
2019-05-20T14:10:02.561Z,0.60
2019-05-20T14:12:37.302Z,0.80
2019-05-20T14:15:12.262Z,0.50
2019-05-20T14:17:47.181Z,0.60
2019-05-20T14:20:22.021Z,0.50
2019-05-20T14:22:56.909Z,0.50
2019-05-20T14:25:31.714Z,0.88
2019-05-20T14:28:06.461Z,0.70
2019-05-20T14:30:41.262Z,1.22
2019-05-20T14:33:16.068Z,1.27
2019-05-20T14:35:51.351Z,1.50
2019-05-20T14:38:26.139Z,1.30
2019-05-20T14:41:00.869Z,1.32
2019-05-20T14:43:35.649Z,1.25
2019-05-20T14:46:10.434Z,1.50
2019-05-20T14:48:45.208Z,1.70
2019-05-20T14:51:19.999Z,1.07
2019-05-20T14:53:54.703Z,1.12
2019-05-20T14:56:29.498Z,1.10
2019-05-20T14:59:04.254Z,0.98
2019-05-20T15:01:39.072Z,1.57
2019-05-20T15:04:13.761Z,1.32
2019-05-20T15:06:48.538Z,1.20
2019-05-20T15:09:23.255Z,1.45
2019-05-20T15:11:57.952Z,1.40
2019-05-20T15:14:32.717Z,1.02
2019-05-20T15:17:07.518Z,1.00
2019-05-20T15:19:42.205Z,0.98
2019-05-20T15:22:16.997Z,1.05
2019-05-20T15:24:51.796Z,0.90
2019-05-20T15:27:26.582Z,0.80
2019-05-20T15:30:01.378Z,1.00
2019-05-20T15:32:36.133Z,0.98
2019-05-20T15:35:10.983Z,0.95
2019-05-20T15:37:45.709Z,0.90
2019-05-20T15:40:24.180Z,0.80
2019-05-20T15:42:56.879Z,0.82
2019-05-20T15:45:31.692Z,0.78
2019-05-20T15:48:06.443Z,0.70
2019-05-20T15:50:41.309Z,0.98
2019-05-20T15:53:16.046Z,0.80
2019-05-20T15:55:50.825Z,0.90
2019-05-20T15:58:25.539Z,0.80
2019-05-20T16:01:00.229Z,0.98
2019-05-20T16:03:35.014Z,1.00
2019-05-20T16:06:09.733Z,1.00
2019-05-20T16:08:44.581Z,0.88
2019-05-20T16:11:19.189Z,0.80
2019-05-20T16:13:53.916Z,0.70
2019-05-20T16:16:28.610Z,0.70
2019-05-20T16:19:04.249Z,0.50
2019-05-20T16:21:39.034Z,0.62
2019-05-20T16:24:13.818Z,0.50
2019-05-20T16:26:49.745Z,0.70
2019-05-20T16:29:24.457Z,0.60
2019-05-20T16:31:59.218Z,0.70
2019-05-20T16:34:33.947Z,0.80
2019-05-20T16:37:08.714Z,0.80
2019-05-20T16:39:43.503Z,1.05
2019-05-20T16:42:19.294Z,0.70
2019-05-20T16:44:54.062Z,0.80
2019-05-20T16:47:28.768Z,0.93
2019-05-20T16:50:04.986Z,0.90
2019-05-20T16:52:40.182Z,0.70
2019-05-20T16:55:15.285Z,0.80
2019-05-20T16:57:50.054Z,1.02
2019-05-20T17:00:31.563Z,0.90
2019-05-20T17:03:01.294Z,1.10
2019-05-20T17:05:36.156Z,1.05
2019-05-20T17:08:11.026Z,1.32
2019-05-20T17:10:46.026Z,1.02
2019-05-20T17:13:20.739Z,0.82
2019-05-20T17:15:55.522Z,0.80
2019-05-20T17:18:30.285Z,0.90
2019-05-20T17:21:05.090Z,0.80
2019-05-20T17:23:41.155Z,0.80
2019-05-20T17:26:15.946Z,0.70
2019-05-20T17:28:50.697Z,0.80
2019-05-20T17:31:26.720Z,0.80
2019-05-20T17:34:01.757Z,0.90
2019-05-20T17:36:36.503Z,1.00
2019-05-20T17:39:11.231Z,0.90
2019-05-20T17:41:46.027Z,1.10
2019-05-20T17:44:20.801Z,1.00
2019-05-20T17:46:56.709Z,1.02
2019-05-20T17:49:31.656Z,0.88
2019-05-20T17:52:06.444Z,0.80
2019-05-20T17:54:41.145Z,1.00
2019-05-20T17:57:17.379Z,1.00
2019-05-20T17:59:52.143Z,1.22
2019-05-20T18:02:26.834Z,1.00
2019-05-20T18:05:03.795Z,1.10
2019-05-20T18:07:40.870Z,1.37
2019-05-20T18:10:18.386Z,1.10
2019-05-20T18:12:53.209Z,1.20
2019-05-20T18:15:27.946Z,1.40
2019-05-20T18:18:02.558Z,1.57
2019-05-20T18:20:37.279Z,1.92
2019-05-20T18:23:12.126Z,1.60
2019-05-20T18:25:46.807Z,2.27
2019-05-20T18:28:21.481Z,1.90
2019-05-20T18:30:57.471Z,1.70
2019-05-20T18:33:32.276Z,2.35
2019-05-20T18:36:07.033Z,2.33
2019-05-20T18:38:41.757Z,2.02
2019-05-20T18:41:18.083Z,2.20
2019-05-20T18:43:52.883Z,2.20
2019-05-20T18:46:27.588Z,2.27
2019-05-20T18:49:02.277Z,2.15
2019-05-20T18:51:36.958Z,2.40
2019-05-20T18:54:11.756Z,2.30
2019-05-20T18:56:46.439Z,11.50
2019-05-20T18:59:22.708Z,17.80
2019-05-20T19:02:05.023Z,3.77
2019-05-20T19:04:33.669Z,3.10
2019-05-20T19:07:08.439Z,3.15
2019-05-20T19:09:43.840Z,2.80
2019-05-20T19:12:20.199Z,2.95
2019-05-20T19:14:55.678Z,2.85
2019-05-20T19:17:30.452Z,3.33
2019-05-20T19:20:06.240Z,5.50
2019-05-20T19:22:40.924Z,8.98
2019-05-20T19:25:15.599Z,9.53
2019-05-20T19:27:50.712Z,7.28
2019-05-20T19:30:27.258Z,6.47
2019-05-20T19:33:02.014Z,6.55
2019-05-20T19:35:36.735Z,7.10
2019-05-20T19:38:11.495Z,5.75
2019-05-20T19:40:46.308Z,9.78
2019-05-20T19:43:21.054Z,8.90
2019-05-20T19:45:55.895Z,7.67
2019-05-20T19:48:31.248Z,8.15
2019-05-20T19:51:05.984Z,8.30
2019-05-20T19:53:40.669Z,8.38
2019-05-20T19:56:15.469Z,8.00
2019-05-20T19:58:51.869Z,7.70
2019-05-20T20:01:28.362Z,7.33
2019-05-20T20:04:04.465Z,7.08
2019-05-20T20:06:39.260Z,5.58
2019-05-20T20:09:14.016Z,6.25
2019-05-20T20:11:48.767Z,5.33
2019-05-20T20:14:23.535Z,5.40
2019-05-20T20:16:58.290Z,4.12
2019-05-20T20:19:32.907Z,3.70
2019-05-20T20:22:07.622Z,3.77
2019-05-20T20:24:42.356Z,3.42
2019-05-20T20:27:17.112Z,4.10
2019-05-20T20:29:51.884Z,2.30
2019-05-20T20:32:37.605Z,2.60
2019-05-20T20:35:03.267Z,2.62
2019-05-20T20:37:39.806Z,2.77
2019-05-20T20:40:14.771Z,2.62
2019-05-20T20:42:49.484Z,2.67
2019-05-20T20:45:24.245Z,2.80
2019-05-20T20:48:01.717Z,4.75
2019-05-20T20:50:36.411Z,4.92
2019-05-20T20:53:11.190Z,5.50
2019-05-20T20:55:45.871Z,5.97
2019-05-20T20:58:20.609Z,5.35
2019-05-20T21:00:55.283Z,6.03
2019-05-20T21:03:30.002Z,5.47
2019-05-20T21:06:04.759Z,5.10
2019-05-20T21:08:39.542Z,5.17
2019-05-20T21:11:15.765Z,5.70
2019-05-20T21:13:50.412Z,4.58
2019-05-20T21:16:25.173Z,4.67
2019-05-20T21:18:59.830Z,4.90
2019-05-20T21:21:34.590Z,4.53
2019-05-20T21:24:09.372Z,4.20
2019-05-20T21:26:44.078Z,4.33
2019-05-20T21:29:18.802Z,4.55
2019-05-20T21:31:53.491Z,4.17
2019-05-20T21:34:28.206Z,4.37
2019-05-20T21:37:02.982Z,5.25
2019-05-20T21:39:37.646Z,5.78
2019-05-20T21:42:12.381Z,5.78
2019-05-20T21:44:47.098Z,6.62
2019-05-20T21:47:21.786Z,7.05
2019-05-20T21:49:56.506Z,7.85
2019-05-20T21:52:31.122Z,6.30
2019-05-20T21:55:07.485Z,6.30
2019-05-20T21:57:42.171Z,3.50
2019-05-20T22:00:19.095Z,4.08
2019-05-20T22:02:53.729Z,4.08
2019-05-20T22:05:28.520Z,3.20
2019-05-20T22:08:04.226Z,3.27
2019-05-20T22:10:39.264Z,2.95
2019-05-20T22:13:13.951Z,1.95
2019-05-20T22:15:48.814Z,2.08
2019-05-20T22:18:23.663Z,2.67
2019-05-20T22:20:58.426Z,2.58
2019-05-20T22:23:34.750Z,3.15
2019-05-20T22:26:09.475Z,3.52
2019-05-20T22:28:44.078Z,3.02
2019-05-20T22:31:18.727Z,3.50
2019-05-20T22:33:53.487Z,3.37
2019-05-20T22:36:28.210Z,3.00
2019-05-20T22:39:04.010Z,3.27
2019-05-20T22:41:38.730Z,2.47
2019-05-20T22:44:13.439Z,2.10
2019-05-20T22:46:48.223Z,1.98
2019-05-20T22:49:22.861Z,1.37
2019-05-20T22:51:57.655Z,0.93
2019-05-20T22:54:32.413Z,1.20
2019-05-20T22:57:07.221Z,1.20
2019-05-20T22:59:41.891Z,1.22
2019-05-20T23:02:16.681Z,1.30
2019-05-20T23:04:51.931Z,1.30
2019-05-20T23:07:26.647Z,1.37
2019-05-20T23:10:01.395Z,1.20
2019-05-20T23:12:36.279Z,1.70
2019-05-20T23:15:11.109Z,1.98
2019-05-20T23:17:45.768Z,1.87
2019-05-20T23:20:20.518Z,2.50
2019-05-20T23:22:55.254Z,2.50
2019-05-20T23:25:29.938Z,2.60
2019-05-20T23:28:04.679Z,2.47
2019-05-20T23:30:39.398Z,2.17
2019-05-20T23:33:14.182Z,2.98
2019-05-20T23:35:48.877Z,3.52
2019-05-20T23:38:23.591Z,4.45
2019-05-20T23:40:58.374Z,4.30
2019-05-20T23:43:33.091Z,4.97
2019-05-20T23:46:07.780Z,4.62
2019-05-20T23:48:42.497Z,3.80
2019-05-20T23:51:17.114Z,3.77
2019-05-20T23:53:51.823Z,3.72
2019-05-20T23:56:26.502Z,4.05
2019-05-20T23:59:01.295Z,3.70
